Time;durP1;ratioP1;P1;durP2;ratioP2;P2;SDS_P1;SDS_P2;PMS_P1;PMS_P2;Temp;Humidity;BMP_temperature;BMP_pressure;BME280_temperature;BME280_humidity;BME280_pressure;Samples;Min_cycle;Max_cycle;Signal;HPM_P1;HPM_P2
2022/08/31 00:05:08;;;;;;;5.40;4.37;;;24.00;91.80;;;;;;4999573;28;20457;-70
2022/08/31 00:07:34;;;;;;;7.10;3.77;;;23.90;92.00;;;;;;4994449;28;20470;-70
2022/08/31 00:10:10;;;;;;;5.13;4.57;;;23.90;92.20;;;;;;4994327;28;20925;-69
2022/08/31 00:12:36;;;;;;;4.87;4.23;;;23.90;92.80;;;;;;4992629;28;20164;-70
2022/08/31 00:15:02;;;;;;;3.93;3.60;;;23.90;92.90;;;;;;4994086;28;20788;-69
2022/08/31 00:17:27;;;;;;;6.77;5.07;;;23.90;93.00;;;;;;4992825;28;20231;-70
2022/08/31 00:19:53;;;;;;;4.40;4.00;;;23.80;93.70;;;;;;4994041;28;20856;-70
2022/08/31 00:22:18;;;;;;;5.67;4.83;;;23.60;95.20;;;;;;4992829;28;20176;-69
2022/08/31 00:24:44;;;;;;;5.50;4.90;;;23.40;97.00;;;;;;4993880;28;20188;-69
2022/08/31 00:27:09;;;;;;;6.03;5.53;;;23.00;99.50;;;;;;4993888;28;20239;-69
2022/08/31 00:29:35;;;;;;;6.90;5.90;;;23.00;99.90;;;;;;4994442;28;20649;-69
2022/08/31 00:32:01;;;;;;;5.93;5.33;;;22.50;99.90;;;;;;4994071;28;20169;-70
2022/08/31 00:34:26;;;;;;;6.27;5.67;;;22.00;99.90;;;;;;4994569;28;20200;-69
2022/08/31 00:36:52;;;;;;;9.03;5.93;;;21.70;99.90;;;;;;4992727;28;20184;-70
2022/08/31 00:39:18;;;;;;;6.77;6.07;;;21.60;99.90;;;;;;4993663;28;20239;-70
2022/08/31 00:41:44;;;;;;;7.50;5.70;;;21.70;99.90;;;;;;4993732;28;20219;-69
2022/08/31 00:44:10;;;;;;;8.00;6.80;;;21.70;99.90;;;;;;4993914;28;20331;-69
2022/08/31 00:46:40;;;;;;;6.37;5.77;;;21.60;99.90;;;;;;4993753;28;20501;-70
2022/08/31 00:49:08;;;;;;;7.17;6.43;;;21.50;99.90;;;;;;4993616;28;20491;-71
2022/08/31 00:51:42;;;;;;;7.23;6.53;;;21.40;99.90;;;;;;4993749;28;20430;-70
2022/08/31 00:54:11;;;;;;;5.20;4.70;;;21.20;99.90;;;;;;4992747;28;20801;-70
2022/08/31 00:56:38;;;;;;;5.27;4.77;;;21.20;99.90;;;;;;4994035;28;20412;-71
2022/08/31 00:59:04;;;;;;;8.30;5.60;;;21.60;99.90;;;;;;4993752;28;20499;-71
2022/08/31 01:01:30;;;;;;;14.17;7.80;;;21.70;99.90;;;;;;4993418;28;20415;-70
2022/08/31 01:03:56;;;;;;;10.57;7.80;;;21.70;99.90;;;;;;4993437;28;20434;-70
2022/08/31 01:06:22;;;;;;;10.07;7.10;;;21.30;99.90;;;;;;4993514;28;20209;-71
2022/08/31 01:08:50;;;;;;;9.23;8.00;;;21.20;99.90;;;;;;4977714;28;20476;-69
2022/08/31 01:11:18;;;;;;;14.80;10.17;;;21.00;99.90;;;;;;4973925;28;20623;-68
2022/08/31 01:13:44;;;;;;;16.77;10.27;;;21.00;99.90;;;;;;4974049;28;20430;-69
2022/08/31 01:16:17;;;;;;;16.33;10.53;;;20.90;99.90;;;;;;4974094;28;20400;-68
2022/08/31 01:18:43;;;;;;;10.90;9.30;;;20.80;99.90;;;;;;4974190;28;20158;-70
2022/08/31 01:21:27;;;;;;;14.90;10.87;;;20.60;99.90;;;;;;4979043;28;20432;-69
2022/08/31 01:23:59;;;;;;;9.63;8.63;;;20.50;99.90;;;;;;4993528;28;20451;-68
2022/08/31 01:26:28;;;;;;;10.87;9.20;;;20.40;99.90;;;;;;4993704;28;20458;-68
2022/08/31 01:28:59;;;;;;;12.57;10.50;;;20.40;99.90;;;;;;4993372;28;20411;-69
2022/08/31 01:31:32;;;;;;;15.27;10.20;;;20.30;99.90;;;;;;4993990;28;20745;-69
2022/08/31 01:33:58;;;;;;;12.27;9.23;;;20.30;99.90;;;;;;4993170;28;20506;-69
2022/08/31 01:36:24;;;;;;;14.83;8.70;;;20.20;99.90;;;;;;4992919;28;20487;-69
2022/08/31 01:38:50;;;;;;;10.83;9.00;;;20.30;99.90;;;;;;4993326;28;20173;-68
2022/08/31 01:41:15;;;;;;;10.20;9.10;;;20.20;99.90;;;;;;4993077;28;20470;-68
2022/08/31 01:43:41;;;;;;;11.10;9.77;;;20.10;99.90;;;;;;4993182;28;20505;-69
2022/08/31 01:46:11;;;;;;;11.80;9.63;;;20.10;99.90;;;;;;4993159;28;20246;-68
2022/08/31 01:48:38;;;;;;;11.57;10.00;;;20.10;99.90;;;;;;4992848;28;20193;-68
2022/08/31 01:51:04;;;;;;;10.97;9.23;;;20.10;99.90;;;;;;4992610;28;20416;-68
2022/08/31 01:53:30;;;;;;;10.23;9.00;;;20.10;99.90;;;;;;4991380;28;20423;-69
2022/08/31 01:55:56;;;;;;;9.90;8.90;;;20.10;99.90;;;;;;4993122;28;20403;-68
2022/08/31 01:58:22;;;;;;;10.90;9.37;;;20.20;99.90;;;;;;4993155;28;20412;-69
2022/08/31 02:00:48;;;;;;;13.47;8.60;;;20.30;99.90;;;;;;4992966;28;20504;-68
2022/08/31 02:03:13;;;;;;;9.47;8.57;;;20.30;99.90;;;;;;4991666;28;20608;-68
2022/08/31 02:05:39;;;;;;;11.53;9.90;;;20.30;99.90;;;;;;4995184;28;20279;-68
2022/08/31 02:08:07;;;;;;;10.30;8.93;;;20.30;99.90;;;;;;4996360;28;20228;-69
2022/08/31 02:10:33;;;;;;;10.63;8.50;;;20.30;99.90;;;;;;4996413;28;20408;-69
2022/08/31 02:12:59;;;;;;;10.33;9.33;;;20.40;99.90;;;;;;4996496;28;20506;-69
2022/08/31 02:15:24;;;;;;;10.13;9.13;;;20.40;99.90;;;;;;4996482;28;20212;-69
2022/08/31 02:17:50;;;;;;;9.17;8.20;;;20.30;99.90;;;;;;4996900;28;20412;-69
2022/08/31 02:20:16;;;;;;;10.00;9.03;;;20.30;99.90;;;;;;4996657;28;20183;-68
2022/08/31 02:22:43;;;;;;;11.03;9.93;;;20.30;99.90;;;;;;4995081;28;20434;-69
2022/08/31 02:25:09;;;;;;;10.70;9.60;;;20.20;99.90;;;;;;4996591;28;20463;-70
2022/08/31 02:27:36;;;;;;;13.30;9.20;;;20.20;99.90;;;;;;5005004;28;20454;-69
2022/08/31 02:30:05;;;;;;;10.97;8.47;;;20.20;99.90;;;;;;5015815;28;20423;-69
2022/08/31 02:32:30;;;;;;;9.60;8.70;;;20.20;99.90;;;;;;5015927;28;20445;-69
2022/08/31 02:34:56;;;;;;;10.77;9.70;;;20.20;99.90;;;;;;4996790;28;20493;-69
2022/08/31 02:37:22;;;;;;;11.07;10.07;;;20.10;99.90;;;;;;4995959;28;20184;-69
2022/08/31 02:39:48;;;;;;;11.83;10.20;;;20.00;99.90;;;;;;4994794;28;20188;-69
2022/08/31 02:42:13;;;;;;;11.00;9.13;;;19.80;99.90;;;;;;4996025;28;20308;-69
2022/08/31 02:44:39;;;;;;;10.93;9.80;;;19.80;99.90;;;;;;4996130;28;20200;-69
2022/08/31 02:47:04;;;;;;;11.10;9.90;;;19.90;99.90;;;;;;4995980;28;20654;-69
2022/08/31 02:49:33;;;;;;;11.40;8.87;;;20.10;99.90;;;;;;4995705;28;20188;-69
2022/08/31 02:51:59;;;;;;;9.97;8.33;;;20.10;99.90;;;;;;4994847;28;20620;-69
2022/08/31 02:54:24;;;;;;;11.83;10.70;;;20.10;99.90;;;;;;4995616;28;20559;-69
2022/08/31 02:56:50;;;;;;;12.47;11.17;;;20.20;99.90;;;;;;4995696;28;20538;-69
2022/08/31 02:59:16;;;;;;;9.10;8.30;;;20.20;99.90;;;;;;4995754;28;20204;-69
2022/08/31 03:01:42;;;;;;;10.83;9.83;;;20.20;99.90;;;;;;4995610;28;20247;-69
2022/08/31 03:04:07;;;;;;;10.03;9.13;;;20.20;99.90;;;;;;4995699;28;20941;-69
2022/08/31 03:06:33;;;;;;;10.33;8.87;;;20.30;99.90;;;;;;4993959;28;20184;-69
2022/08/31 03:08:59;;;;;;;11.40;10.23;;;20.30;99.90;;;;;;4995421;28;20196;-69
2022/08/31 03:11:25;;;;;;;11.80;10.60;;;20.30;99.90;;;;;;4995194;28;20169;-69
2022/08/31 03:13:50;;;;;;;10.20;9.23;;;20.40;99.90;;;;;;4995504;28;20227;-69
2022/08/31 03:16:16;;;;;;;11.80;10.33;;;20.40;99.90;;;;;;4991504;28;20422;-69
2022/08/31 03:18:42;;;;;;;9.23;8.37;;;20.30;99.90;;;;;;4995403;28;20569;-68
2022/08/31 03:21:08;;;;;;;10.97;9.63;;;20.20;99.90;;;;;;4994190;28;20507;-69
2022/08/31 03:23:33;;;;;;;10.93;9.60;;;20.20;99.90;;;;;;4994996;28;20177;-69
2022/08/31 03:25:59;;;;;;;11.77;10.63;;;20.20;99.90;;;;;;4995337;28;20172;-68
2022/08/31 03:28:24;;;;;;;11.30;10.30;;;20.10;99.90;;;;;;4994192;28;20213;-69
2022/08/31 03:30:50;;;;;;;10.23;9.33;;;20.00;99.90;;;;;;4995102;28;20208;-69
2022/08/31 03:33:16;;;;;;;9.87;9.03;;;20.00;99.90;;;;;;4995148;28;20238;-69
2022/08/31 03:35:43;;;;;;;9.37;8.47;;;20.00;99.90;;;;;;4994429;28;20238;-68
2022/08/31 03:38:11;;;;;;;11.57;10.47;;;20.00;99.90;;;;;;4994833;28;20181;-69
2022/08/31 03:40:37;;;;;;;11.90;10.80;;;20.00;99.90;;;;;;4995000;28;20412;-68
2022/08/31 03:43:03;;;;;;;10.43;9.40;;;20.00;99.90;;;;;;4994880;28;20408;-69
2022/08/31 03:45:30;;;;;;;11.23;10.13;;;20.10;99.90;;;;;;4995161;28;20435;-68
2022/08/31 03:47:58;;;;;;;10.93;9.83;;;20.10;99.90;;;;;;4994852;28;20464;-69
2022/08/31 03:50:24;;;;;;;9.63;8.63;;;20.10;99.90;;;;;;4993154;28;20782;-69
2022/08/31 03:52:49;;;;;;;10.53;9.53;;;20.10;99.90;;;;;;4993579;28;20431;-69
2022/08/31 03:55:15;;;;;;;9.77;8.77;;;20.00;99.90;;;;;;4994306;28;20827;-69
2022/08/31 03:57:41;;;;;;;9.43;8.60;;;20.00;99.90;;;;;;4994410;28;20184;-69
2022/08/31 04:00:08;;;;;;;10.00;9.10;;;20.00;99.90;;;;;;4994487;28;20912;-69
2022/08/31 04:02:37;;;;;;;14.13;8.47;;;20.00;99.90;;;;;;4994677;28;20529;-69
2022/08/31 04:05:02;;;;;;;10.80;9.70;;;19.90;99.90;;;;;;4994599;28;20431;-69
2022/08/31 04:07:28;;;;;;;11.07;10.10;;;19.80;99.90;;;;;;4994398;28;20458;-69
2022/08/31 04:09:54;;;;;;;12.60;11.50;;;19.70;99.90;;;;;;4994775;28;20641;-69
2022/08/31 04:12:19;;;;;;;10.90;9.80;;;19.60;99.90;;;;;;4994538;28;20226;-70
2022/08/31 04:14:45;;;;;;;9.07;8.17;;;19.80;99.90;;;;;;4994469;28;20193;-69
2022/08/31 04:17:11;;;;;;;10.93;9.93;;;19.80;99.90;;;;;;4994267;28;20177;-69
2022/08/31 04:19:39;;;;;;;10.90;9.80;;;19.90;99.90;;;;;;4994527;28;20183;-69
2022/08/31 04:22:04;;;;;;;11.70;10.70;;;19.90;99.90;;;;;;4993169;28;20443;-69
2022/08/31 04:24:30;;;;;;;11.10;10.00;;;19.90;99.90;;;;;;4994245;28;20798;-68
2022/08/31 04:26:55;;;;;;;10.73;9.67;;;19.90;99.90;;;;;;4992044;28;20192;-69
2022/08/31 04:29:22;;;;;;;11.90;10.80;;;19.90;99.90;;;;;;4994130;28;20619;-69
2022/08/31 04:31:48;;;;;;;13.57;10.43;;;19.80;99.90;;;;;;4993337;28;20200;-69
2022/08/31 04:34:13;;;;;;;10.70;9.80;;;19.70;99.90;;;;;;4994098;28;20431;-69
2022/08/31 04:36:39;;;;;;;12.73;10.70;;;19.80;99.90;;;;;;4993785;28;20252;-69
2022/08/31 04:39:06;;;;;;;11.73;10.60;;;19.80;99.90;;;;;;4994599;28;20176;-69
2022/08/31 04:41:36;;;;;;;13.60;12.20;;;19.80;99.90;;;;;;4992866;28;20181;-69
2022/08/31 04:44:02;;;;;;;11.23;10.23;;;19.80;99.90;;;;;;4994787;28;20435;-69
2022/08/31 04:46:30;;;;;;;11.57;10.57;;;19.90;99.90;;;;;;4994221;28;20754;-69
2022/08/31 04:48:56;;;;;;;11.87;10.77;;;19.80;99.90;;;;;;4994142;28;20407;-68
2022/08/31 04:51:28;;;;;;;10.60;9.37;;;19.80;99.90;;;;;;4993890;28;20810;-69
2022/08/31 04:53:54;;;;;;;10.70;9.60;;;19.80;99.90;;;;;;4993495;28;20487;-69
2022/08/31 04:56:26;;;;;;;11.00;9.43;;;19.90;99.90;;;;;;4993145;28;20389;-69
2022/08/31 04:58:54;;;;;;;9.60;8.67;;;19.90;99.90;;;;;;4993906;28;20394;-69
2022/08/31 05:01:22;;;;;;;12.20;11.10;;;19.90;99.90;;;;;;4993613;28;20439;-69
2022/08/31 05:03:51;;;;;;;10.10;9.20;;;19.90;99.90;;;;;;4993656;28;20431;-70
2022/08/31 05:06:23;;;;;;;10.70;9.60;;;20.00;99.90;;;;;;4993703;28;20415;-69
2022/08/31 05:08:53;;;;;;;11.50;10.33;;;20.00;99.90;;;;;;4993707;28;20874;-69
2022/08/31 05:11:19;;;;;;;10.83;9.83;;;20.00;99.90;;;;;;4993045;28;20420;-69
2022/08/31 05:13:45;;;;;;;11.63;10.17;;;19.90;99.90;;;;;;4993343;28;20795;-70
2022/08/31 05:16:11;;;;;;;11.10;10.07;;;19.90;99.90;;;;;;4993372;28;20172;-70
2022/08/31 05:18:39;;;;;;;10.57;9.47;;;19.90;99.90;;;;;;4988201;28;20189;-69
2022/08/31 05:21:12;;;;;;;12.47;11.27;;;20.00;99.90;;;;;;4998006;28;20482;-70
2022/08/31 05:23:38;;;;;;;9.67;8.77;;;20.10;99.90;;;;;;4973690;28;20389;-69
2022/08/31 05:26:05;;;;;;;11.50;10.50;;;20.00;99.90;;;;;;4973739;28;20449;-70
2022/08/31 05:28:32;;;;;;;11.10;10.10;;;19.90;99.90;;;;;;4992432;28;20459;-70
2022/08/31 05:30:58;;;;;;;11.43;10.23;;;19.90;99.90;;;;;;4993244;28;20411;-70
2022/08/31 05:33:25;;;;;;;11.50;10.50;;;20.00;99.90;;;;;;4993212;28;20404;-70
2022/08/31 05:35:50;;;;;;;14.23;12.07;;;20.00;99.90;;;;;;4991089;28;20447;-69
2022/08/31 05:38:16;;;;;;;11.17;9.97;;;20.00;99.90;;;;;;4993266;28;20451;-69
2022/08/31 05:40:41;;;;;;;11.73;10.73;;;19.90;99.90;;;;;;4997839;28;20177;-70
2022/08/31 05:43:07;;;;;;;12.53;11.43;;;19.90;99.90;;;;;;4996464;28;20180;-70
2022/08/31 05:45:32;;;;;;;13.60;12.00;;;19.90;99.90;;;;;;4997005;28;20215;-69
2022/08/31 05:47:58;;;;;;;12.70;11.60;;;20.00;99.90;;;;;;4997057;28;20235;-67
2022/08/31 05:50:23;;;;;;;13.37;12.27;;;20.10;99.90;;;;;;4997233;28;20181;-69
2022/08/31 05:52:49;;;;;;;14.50;13.20;;;20.10;99.90;;;;;;4997060;28;20180;-70
2022/08/31 05:55:15;;;;;;;14.00;12.70;;;20.10;99.90;;;;;;4998311;28;20259;-70
2022/08/31 05:57:41;;;;;;;14.60;13.10;;;20.10;99.90;;;;;;4995281;28;20272;-69
2022/08/31 06:00:09;;;;;;;12.50;11.30;;;20.00;99.90;;;;;;4996873;28;20412;-68
2022/08/31 06:02:35;;;;;;;13.23;11.97;;;20.10;99.90;;;;;;4996978;28;20451;-69
2022/08/31 06:05:01;;;;;;;11.07;10.07;;;20.10;99.90;;;;;;4997746;28;20427;-72
2022/08/31 06:07:27;;;;;;;14.03;12.77;;;20.10;99.90;;;;;;4996571;28;20467;-70
2022/08/31 06:09:52;;;;;;;14.13;12.80;;;20.00;99.90;;;;;;4996842;28;20173;-69
2022/08/31 06:12:19;;;;;;;13.60;12.30;;;19.90;99.90;;;;;;4996331;28;20184;-69
2022/08/31 06:14:45;;;;;;;13.50;12.10;;;19.60;99.90;;;;;;4996613;28;20185;-70
2022/08/31 06:17:11;;;;;;;11.93;10.80;;;19.50;99.90;;;;;;4996417;28;20411;-69
2022/08/31 06:19:37;;;;;;;12.20;11.10;;;19.50;99.90;;;;;;4996536;28;20901;-70
2022/08/31 06:22:03;;;;;;;11.83;10.77;;;19.50;99.90;;;;;;4994820;28;20431;-69
2022/08/31 06:24:28;;;;;;;11.40;10.30;;;19.60;99.90;;;;;;4996410;28;20204;-69
2022/08/31 06:26:58;;;;;;;12.37;11.17;;;19.60;99.90;;;;;;4996293;28;20207;-69
2022/08/31 06:29:25;;;;;;;11.03;9.83;;;19.80;99.90;;;;;;4994178;28;20187;-69
2022/08/31 06:31:50;;;;;;;12.40;11.20;;;19.90;99.90;;;;;;4996389;28;20882;-69
2022/08/31 06:34:18;;;;;;;12.90;11.70;;;20.00;99.90;;;;;;4996090;28;20515;-69
2022/08/31 06:36:43;;;;;;;15.00;13.53;;;20.00;99.90;;;;;;4995778;28;20219;-69
2022/08/31 06:39:11;;;;;;;12.83;11.63;;;20.10;99.90;;;;;;4996585;28;20408;-69
2022/08/31 06:41:38;;;;;;;18.70;16.80;;;20.00;99.90;;;;;;4996337;28;20634;-69
2022/08/31 06:44:06;;;;;;;11.93;10.87;;;20.00;99.90;;;;;;4995804;28;20439;-69
2022/08/31 06:46:34;;;;;;;14.03;11.63;;;19.90;99.90;;;;;;4995980;28;20462;-69
2022/08/31 06:49:00;;;;;;;12.60;11.23;;;19.90;99.90;;;;;;4995914;28;20399;-69
2022/08/31 06:51:26;;;;;;;12.40;9.70;;;19.80;99.90;;;;;;4994677;28;20417;-70
2022/08/31 06:53:52;;;;;;;10.90;10.00;;;19.90;99.90;;;;;;4995141;28;20543;-69
2022/08/31 06:56:21;;;;;;;10.77;9.87;;;20.00;99.90;;;;;;4995862;28;20161;-69
2022/08/31 06:58:48;;;;;;;14.70;10.90;;;20.10;99.90;;;;;;4995597;28;20951;-69
2022/08/31 07:01:18;;;;;;;10.67;9.67;;;20.10;99.90;;;;;;4994027;28;20420;-69
2022/08/31 07:03:48;;;;;;;11.57;10.57;;;20.10;99.90;;;;;;4996229;28;20431;-69
2022/08/31 07:06:17;;;;;;;12.43;10.43;;;19.90;99.90;;;;;;4995661;28;20426;-69
2022/08/31 07:08:45;;;;;;;12.37;10.97;;;20.10;99.90;;;;;;4994610;28;20463;-69
2022/08/31 07:11:19;;;;;;;13.30;11.90;;;20.00;99.90;;;;;;4995686;28;20436;-69
2022/08/31 07:13:46;;;;;;;10.97;9.87;;;20.00;99.90;;;;;;4995350;28;20430;-69
2022/08/31 07:16:14;;;;;;;12.70;11.60;;;20.00;99.90;;;;;;4995272;28;20901;-69
2022/08/31 07:18:41;;;;;;;9.57;8.60;;;20.00;99.90;;;;;;4995403;28;20760;-69
2022/08/31 07:21:16;;;;;;;9.33;8.43;;;20.00;99.90;;;;;;4995260;28;20412;-68
2022/08/31 07:23:43;;;;;;;13.23;10.57;;;20.20;99.90;;;;;;4991416;28;20444;-69
2022/08/31 07:26:15;;;;;;;9.80;8.90;;;20.40;99.90;;;;;;4994340;28;20505;-69
2022/08/31 07:28:50;;;;;;;9.97;9.07;;;20.50;99.90;;;;;;4995157;28;20925;-69
2022/08/31 07:31:16;;;;;;;11.50;10.33;;;20.50;99.90;;;;;;4996175;28;20885;-67
2022/08/31 07:33:42;;;;;;;10.90;9.33;;;20.30;99.90;;;;;;4995005;28;20486;-68
2022/08/31 07:36:12;;;;;;;10.20;9.17;;;20.40;99.90;;;;;;4995252;28;20534;-70
2022/08/31 07:44:12;;;;;;;10.77;9.77;;;20.50;99.90;;;;;;4995479;28;20450;-69
2022/08/31 07:46:38;;;;;;;9.47;8.60;;;20.40;99.90;;;;;;4994250;28;20927;-69
2022/08/31 07:49:11;;;;;;;10.83;9.47;;;20.60;99.90;;;;;;4994507;28;20416;-69
2022/08/31 07:51:37;;;;;;;11.60;9.40;;;20.80;99.90;;;;;;4994798;28;20232;-69
2022/08/31 07:54:04;;;;;;;9.53;8.73;;;20.90;99.90;;;;;;4994499;28;20507;-69
2022/08/31 07:56:30;;;;;;;11.60;10.23;;;21.00;99.90;;;;;;4994161;28;20440;-69
2022/08/31 07:58:56;;;;;;;10.10;8.80;;;20.90;99.90;;;;;;4994699;28;20416;-68
2022/08/31 08:01:21;;;;;;;9.40;8.60;;;21.00;99.90;;;;;;4994971;28;20219;-70
2022/08/31 08:03:47;;;;;;;11.40;9.50;;;20.90;99.90;;;;;;4994592;28;20199;-69
2022/08/31 08:06:14;;;;;;;13.53;9.43;;;20.90;99.90;;;;;;4994525;28;20195;-68
2022/08/31 08:08:41;;;;;;;10.03;9.07;;;20.70;99.90;;;;;;4994258;28;20295;-68
2022/08/31 08:11:09;;;;;;;9.70;8.70;;;20.70;99.90;;;;;;4990440;28;20515;-68
2022/08/31 08:13:34;;;;;;;9.93;8.77;;;20.50;99.90;;;;;;5002817;28;20905;-68
2022/08/31 08:16:00;;;;;;;10.60;9.67;;;20.60;99.90;;;;;;4994262;28;20475;-68
2022/08/31 08:18:26;;;;;;;9.20;8.40;;;20.50;99.90;;;;;;4992867;28;20189;-68
2022/08/31 08:20:51;;;;;;;9.13;8.33;;;20.40;99.90;;;;;;4993987;28;20213;-69
2022/08/31 08:23:18;;;;;;;8.53;7.73;;;20.40;99.90;;;;;;4993443;28;20173;-69
2022/08/31 08:25:45;;;;;;;9.43;8.53;;;20.10;99.90;;;;;;4993270;28;20227;-69
2022/08/31 08:28:16;;;;;;;9.33;8.43;;;20.40;99.90;;;;;;4993989;28;20456;-68
2022/08/31 08:30:44;;;;;;;9.70;8.80;;;20.40;99.90;;;;;;4992869;28;20420;-69
2022/08/31 08:33:09;;;;;;;9.43;8.63;;;20.50;99.90;;;;;;4994107;28;20407;-68
2022/08/31 08:35:35;;;;;;;9.13;8.23;;;20.70;99.90;;;;;;4992634;28;20432;-69
2022/08/31 08:38:01;;;;;;;9.50;8.50;;;20.60;99.90;;;;;;4993235;28;20565;-68
2022/08/31 08:40:41;;;;;;;9.93;8.97;;;20.80;99.90;;;;;;4993812;28;20240;-69
2022/08/31 08:43:14;;;;;;;8.93;8.03;;;21.00;99.90;;;;;;4993709;28;20419;-69
2022/08/31 08:45:42;;;;;;;10.73;9.73;;;21.10;99.90;;;;;;4993830;28;20841;-69
2022/08/31 08:48:12;;;;;;;11.70;9.17;;;21.10;99.90;;;;;;4993230;28;20924;-68
2022/08/31 08:50:40;;;;;;;10.70;9.77;;;21.20;99.90;;;;;;4993846;28;20963;-69
2022/08/31 08:53:11;;;;;;;10.00;9.10;;;21.30;99.90;;;;;;4993542;28;20474;-69
2022/08/31 08:55:39;;;;;;;9.77;8.90;;;21.30;99.90;;;;;;4993778;28;20475;-68
2022/08/31 08:58:09;;;;;;;12.30;11.10;;;21.20;99.90;;;;;;4993427;28;20437;-68
2022/08/31 09:00:36;;;;;;;9.43;8.50;;;20.90;99.90;;;;;;4992254;28;20784;-70
2022/08/31 09:03:11;;;;;;;10.43;9.43;;;21.00;99.90;;;;;;4993754;28;20408;-69
2022/08/31 09:05:58;;;;;;;12.80;11.67;;;21.10;99.90;;;;;;4994083;28;20470;-69
2022/08/31 09:09:06;;;;;;;12.37;11.17;;;21.10;99.90;;;;;;4993946;28;20473;-69
2022/08/31 09:11:45;;;;;;;12.90;11.60;;;21.00;99.90;;;;;;4993795;28;20384;-69
2022/08/31 09:14:52;;;;;;;13.67;11.90;;;20.90;99.90;;;;;;4995767;28;20492;-69
2022/08/31 09:17:48;;;;;;;10.70;9.70;;;20.90;99.90;;;;;;4971559;28;20797;-69
2022/08/31 09:20:15;;;;;;;11.57;10.23;;;21.00;99.90;;;;;;5000173;28;20431;-69
2022/08/31 09:22:51;;;;;;;10.53;9.63;;;20.90;99.90;;;;;;4999914;28;20731;-69
2022/08/31 09:25:32;;;;;;;10.53;9.53;;;20.90;99.90;;;;;;4998594;28;20497;-69
2022/08/31 09:28:01;;;;;;;10.30;9.30;;;20.80;99.90;;;;;;4996953;28;20832;-69
2022/08/31 09:30:53;;;;;;;12.40;11.07;;;20.80;99.90;;;;;;4999961;28;20889;-69
2022/08/31 09:33:32;;;;;;;11.30;10.20;;;20.50;99.90;;;;;;4997826;28;20420;-71
2022/08/31 09:36:21;;;;;;;10.70;9.60;;;20.50;99.90;;;;;;5000453;28;20499;-70
2022/08/31 09:38:47;;;;;;;12.53;11.27;;;20.20;99.90;;;;;;5000233;28;20395;-69
2022/08/31 09:41:24;;;;;;;11.60;10.47;;;20.30;99.90;;;;;;4999737;28;20915;-70
2022/08/31 09:43:50;;;;;;;11.13;10.13;;;20.40;99.90;;;;;;5000372;28;20438;-69
2022/08/31 09:46:29;;;;;;;12.20;11.10;;;20.60;99.90;;;;;;5001536;28;20411;-70
2022/08/31 09:48:57;;;;;;;10.63;9.53;;;20.50;99.90;;;;;;5008278;28;20189;-69
2022/08/31 09:51:32;;;;;;;12.30;11.03;;;20.40;99.90;;;;;;5008203;28;20889;-70
2022/08/31 09:56:53;;;;;;;10.60;9.70;;;20.50;99.90;;;;;;5009370;28;20382;-70
2022/08/31 09:59:39;;;;;;;9.30;8.43;;;20.70;99.90;;;;;;5009175;28;20411;-70
2022/08/31 10:02:21;;;;;;;11.73;10.43;;;21.00;99.90;;;;;;5007564;28;20403;-70
2022/08/31 10:04:57;;;;;;;9.50;8.70;;;21.10;99.90;;;;;;5006655;28;20439;-69
2022/08/31 10:07:42;;;;;;;14.83;10.77;;;20.80;99.90;;;;;;5008896;28;20447;-71
2022/08/31 10:10:20;;;;;;;11.87;10.77;;;21.00;99.90;;;;;;5004470;28;20951;-68
2022/08/31 10:13:16;;;;;;;10.17;9.27;;;21.10;99.90;;;;;;4999830;28;20471;-69
2022/08/31 10:15:55;;;;;;;9.70;8.80;;;21.10;99.90;;;;;;5001866;28;20419;-69
2022/08/31 10:18:54;;;;;;;10.10;9.13;;;21.00;99.90;;;;;;5001913;28;20439;-69
2022/08/31 10:21:34;;;;;;;10.80;8.53;;;21.40;99.90;;;;;;5001593;28;20947;-69
2022/08/31 10:24:32;;;;;;;9.10;8.30;;;21.70;99.90;;;;;;4999671;28;20439;-69
2022/08/31 10:27:31;;;;;;;11.77;8.83;;;21.80;99.90;;;;;;4995825;28;20451;-68
2022/08/31 10:30:08;;;;;;;9.60;8.23;;;21.50;99.90;;;;;;4996276;28;20416;-69
2022/08/31 10:32:42;;;;;;;8.57;7.60;;;21.90;99.90;;;;;;4996667;28;20503;-69
2022/08/31 10:35:36;;;;;;;9.13;8.00;;;22.10;99.90;;;;;;4994836;28;20813;-69
2022/08/31 10:38:27;;;;;;;9.30;8.43;;;22.20;99.90;;;;;;4996194;28;20399;-69
2022/08/31 10:41:08;;;;;;;7.83;7.13;;;22.40;99.90;;;;;;4994677;28;20416;-69
2022/08/31 10:43:56;;;;;;;13.00;7.70;;;22.50;99.90;;;;;;4995705;28;20434;-69
2022/08/31 10:46:22;;;;;;;8.30;7.53;;;22.50;99.90;;;;;;4994979;28;20420;-69
2022/08/31 10:48:53;;;;;;;8.47;7.77;;;22.30;99.90;;;;;;4995711;28;20499;-70
2022/08/31 10:51:30;;;;;;;11.10;8.60;;;22.00;99.90;;;;;;4995153;28;20400;-69
2022/08/31 10:54:02;;;;;;;7.93;7.23;;;21.90;99.90;;;;;;4995666;28;20436;-69
2022/08/31 10:56:40;;;;;;;9.57;8.57;;;21.60;99.90;;;;;;4995074;28;20400;-69
2022/08/31 10:59:26;;;;;;;9.70;8.70;;;21.60;99.90;;;;;;4995736;28;20924;-69
2022/08/31 11:02:23;;;;;;;8.93;8.03;;;21.90;99.90;;;;;;4996153;28;20414;-69
2022/08/31 11:04:58;;;;;;;8.50;7.40;;;21.90;99.90;;;;;;4995938;28;20442;-69
2022/08/31 11:08:03;;;;;;;7.93;7.23;;;21.80;99.90;;;;;;4999899;28;20846;-69
2022/08/31 11:10:47;;;;;;;9.77;8.87;;;21.50;99.90;;;;;;4990845;28;20897;-69
2022/08/31 11:13:59;;;;;;;11.03;8.80;;;21.30;99.90;;;;;;4995281;28;20388;-69
2022/08/31 11:16:39;;;;;;;9.17;8.20;;;21.40;99.90;;;;;;4943826;28;20935;-69
2022/08/31 11:19:25;;;;;;;9.27;8.40;;;21.60;99.90;;;;;;4995518;28;20400;-69
2022/08/31 11:22:08;;;;;;;9.47;8.60;;;21.50;99.90;;;;;;4992004;28;20439;-69
2022/08/31 11:25:04;;;;;;;8.97;8.03;;;21.60;99.90;;;;;;4994079;28;20466;-69
2022/08/31 11:28:08;;;;;;;10.30;9.10;;;21.60;99.90;;;;;;4995168;28;20494;-69
2022/08/31 11:30:40;;;;;;;8.43;7.20;;;21.10;99.90;;;;;;4965182;28;20419;-69
2022/08/31 11:33:16;;;;;;;10.00;9.17;;;21.50;99.90;;;;;;4995946;28;20431;-70
2022/08/31 11:35:48;;;;;;;11.37;8.30;;;21.70;99.90;;;;;;4995367;28;20507;-70
2022/08/31 11:38:38;;;;;;;9.43;8.50;;;21.90;99.90;;;;;;4993766;28;20479;-69
2022/08/31 11:41:04;;;;;;;9.97;8.97;;;21.80;99.90;;;;;;4994618;28;20411;-69
2022/08/31 11:43:30;;;;;;;10.53;9.43;;;21.70;99.90;;;;;;4995606;28;20481;-70
2022/08/31 11:46:00;;;;;;;9.70;8.90;;;21.50;99.90;;;;;;4994668;28;20400;-69
2022/08/31 11:48:52;;;;;;;12.27;11.00;;;21.80;99.90;;;;;;4994920;28;20239;-69
2022/08/31 11:51:39;;;;;;;11.50;10.40;;;21.20;99.90;;;;;;4993435;28;20502;-70
2022/08/31 11:54:40;;;;;;;11.63;10.53;;;20.80;99.90;;;;;;5021961;22;20451;-68
2022/08/31 11:57:14;;;;;;;10.50;9.53;;;20.80;99.90;;;;;;4970853;28;20451;-69
2022/08/31 11:59:45;;;;;;;9.33;8.53;;;20.80;99.90;;;;;;4995249;28;20412;-69
2022/08/31 12:02:19;;;;;;;9.73;8.73;;;20.90;99.90;;;;;;4994629;28;20387;-69
2022/08/31 12:04:49;;;;;;;12.27;9.50;;;21.10;99.90;;;;;;4994563;28;20462;-69
2022/08/31 12:07:27;;;;;;;9.50;8.50;;;21.40;99.90;;;;;;4994779;28;20496;-69
2022/08/31 12:10:17;;;;;;;10.53;9.63;;;21.40;99.90;;;;;;4994962;28;20391;-69
2022/08/31 12:13:06;;;;;;;9.50;8.50;;;21.60;99.90;;;;;;4994881;28;20396;-69
2022/08/31 12:15:44;;;;;;;10.13;7.97;;;21.60;99.90;;;;;;4995249;28;20420;-69
2022/08/31 12:18:59;;;;;;;8.53;7.73;;;21.80;99.90;;;;;;4994043;28;20787;-69
2022/08/31 12:24:50;;;;;;;10.93;9.83;;;21.90;99.90;;;;;;4994883;28;20455;-69
2022/08/31 12:27:42;;;;;;;8.87;7.93;;;22.00;99.90;;;;;;4975827;28;20451;-69
2022/08/31 12:30:28;;;;;;;10.63;8.83;;;22.10;99.90;;;;;;4994778;28;20388;-69
2022/08/31 12:33:10;;;;;;;8.70;7.83;;;22.30;99.90;;;;;;4994279;28;20412;-69
2022/08/31 12:35:36;;;;;;;8.90;7.80;;;22.40;99.90;;;;;;4994777;28;20943;-69
2022/08/31 12:38:07;;;;;;;10.93;8.10;;;22.30;99.90;;;;;;4994270;28;20407;-69
2022/08/31 12:40:41;;;;;;;8.80;7.90;;;22.40;99.90;;;;;;4994527;28;20157;-69
2022/08/31 12:43:38;;;;;;;8.63;7.83;;;22.70;99.90;;;;;;4993523;28;20402;-69
2022/08/31 12:46:24;;;;;;;10.00;9.10;;;23.00;99.90;;;;;;4993180;28;20494;-69
2022/08/31 12:48:58;;;;;;;12.53;9.07;;;23.00;99.90;;;;;;4993581;28;20803;-69
2022/08/31 12:51:41;;;;;;;11.23;8.03;;;23.10;99.90;;;;;;4993968;28;20462;-69
2022/08/31 12:54:14;;;;;;;8.93;8.03;;;23.30;99.90;;;;;;4994280;28;20388;-69
2022/08/31 12:56:42;;;;;;;10.40;9.50;;;23.70;99.90;;;;;;4992928;28;20801;-69
2022/08/31 12:59:21;;;;;;;9.67;8.77;;;23.80;99.90;;;;;;4994349;28;20399;-69
2022/08/31 13:01:49;;;;;;;10.03;8.60;;;23.90;99.90;;;;;;4994245;28;20395;-69
2022/08/31 13:04:19;;;;;;;10.80;9.37;;;23.20;99.90;;;;;;4994184;28;20404;-69
2022/08/31 13:06:47;;;;;;;9.80;8.80;;;23.00;99.90;;;;;;4993944;28;20394;-69
2022/08/31 13:09:25;;;;;;;9.07;8.27;;;23.20;99.90;;;;;;4993819;28;20411;-69
2022/08/31 13:11:53;;;;;;;9.67;8.40;;;23.20;99.90;;;;;;4993290;28;20403;-69
2022/08/31 13:14:25;;;;;;;10.90;8.80;;;22.90;99.90;;;;;;4994035;28;20789;-69